Time;durP1;ratioP1;P1;durP2;ratioP2;P2;SDS_P1;SDS_P2;PMS_P1;PMS_P2;Temp;Humidity;BMP_temperature;BMP_pressure;BME280_temperature;BME280_humidity;BME280_pressure;Samples;Min_cycle;Max_cycle;Signal;HPM_P1;HPM_P2
2023/06/07 04:59:11;;;;;;;;;;;;;;;21.54;46.41;96797.97;4217958;27;10413;-63
2023/06/07 05:01:15;;;;;;;;;;;;;;;21.84;46.32;96802.66;4190768;28;5703;-64
2023/06/07 05:03:21;;;;;;;;;;;;;;;22.07;46.13;96808.38;4196288;28;5708;-63
2023/06/07 05:05:24;;;;;;;;;;;;;;;22.26;45.62;96805.22;4205063;28;5821;-64
2023/06/07 05:07:32;;;;;;;;;;;;;;;22.41;45.65;96805.22;4195465;28;5711;-64
2023/06/07 05:09:35;;;;;;;;;;;;;;;22.53;45.31;96808.44;4197939;28;5709;-64
2023/06/07 05:11:38;;;;;;;;;;;;;;;22.63;45.20;96800.38;4198591;28;5794;-64
2023/06/07 05:13:41;;;;;;;;;;;;;;;22.69;45.51;96793.13;4201522;28;5756;-64
2023/06/07 05:15:45;;;;;;;;;;;;;;;22.75;45.25;96796.59;4197636;28;5790;-64
2023/06/07 05:17:48;;;;;;;;;;;;;;;22.77;45.45;96800.66;4186608;28;5724;-63
2023/06/07 05:19:51;;;;;;;;;;;;;;;22.81;45.18;96801.72;4201969;28;5827;-64
2023/06/07 05:21:54;;;;;;;;;;;;;;;22.88;45.20;96801.50;4195123;28;5927;-64
2023/06/07 05:23:57;;;;;;;;;;;;;;;22.94;45.00;96805.78;4195042;28;5798;-65
2023/06/07 05:26:00;;;;;;;;;;;;;;;23.03;45.21;96803.34;4194955;28;5727;-63
2023/06/07 05:28:03;;;;;;;;;;;;;;;23.10;44.79;96799.28;4198979;28;5832;-64
2023/06/07 05:30:13;;;;;;;;;;;;;;;23.19;44.87;96805.72;4197654;28;5794;-63
2023/06/07 05:32:17;;;;;;;;;;;;;;;23.26;44.75;96802.75;4193721;28;5879;-63
2023/06/07 05:34:20;;;;;;;;;;;;;;;23.34;44.52;96804.91;4191095;28;5857;-63
2023/06/07 05:36:23;;;;;;;;;;;;;;;23.41;44.41;96797.31;4194468;28;5723;-64
2023/06/07 05:38:26;;;;;;;;;;;;;;;23.50;44.41;96802.97;4198097;28;5783;-63
2023/06/07 05:40:29;;;;;;;;;;;;;;;23.58;44.25;96794.34;4197495;28;5715;-63
2023/06/07 05:42:38;;;;;;;;;;;;;;;23.62;44.11;96795.38;4197456;28;5718;-63
2023/06/07 05:44:41;;;;;;;;;;;;;;;23.63;44.18;96797.00;4197613;28;5727;-63
2023/06/07 05:46:44;;;;;;;;;;;;;;;23.67;44.31;96798.06;4197321;28;5743;-63
2023/06/07 05:48:48;;;;;;;;;;;;;;;23.72;44.06;96795.34;4196842;28;5733;-63
2023/06/07 05:50:52;;;;;;;;;;;;;;;23.77;44.17;96802.59;4197425;28;5712;-63
2023/06/07 05:52:57;;;;;;;;;;;;;;;23.83;44.27;96796.09;4197194;28;5707;-63
2023/06/07 05:55:00;;;;;;;;;;;;;;;23.90;44.00;96806.59;4197288;28;5805;-64
2023/06/07 05:57:04;;;;;;;;;;;;;;;23.94;44.12;96803.06;4196148;28;5715;-64
2023/06/07 05:59:07;;;;;;;;;;;;;;;23.99;44.31;96805.72;4191714;28;5787;-64
2023/06/07 06:01:13;;;;;;;;;;;;;;;24.04;44.06;96804.91;4183325;28;6995;-64
2023/06/07 06:03:16;;;;;;;;;;;;;;;24.02;44.07;96809.78;4185850;28;5715;-63
2023/06/07 06:05:23;;;;;;;;;;;;;;;24.03;44.17;96816.81;4186107;28;5715;-63
2023/06/07 06:07:26;;;;;;;;;;;;;;;24.08;43.83;96805.97;4185882;28;5727;-63
2023/06/07 06:09:29;;;;;;;;;;;;;;;24.16;43.82;96807.28;4186042;28;5099;-64
2023/06/07 06:11:32;;;;;;;;;;;;;;;24.24;43.55;96814.78;4189436;28;6405;-64
2023/06/07 06:13:35;;;;;;;;;;;;;;;24.30;43.67;96819.91;4186014;28;5822;-63
2023/06/07 06:15:38;;;;;;;;;;;;;;;24.36;43.51;96820.69;4185921;28;5843;-64
2023/06/07 06:17:41;;;;;;;;;;;;;;;24.35;43.37;96814.47;4185585;28;5934;-64
2023/06/07 06:19:43;;;;;;;;;;;;;;;24.37;43.23;96828.50;4185689;28;5718;-63
2023/06/07 06:21:48;;;;;;;;;;;;;;;24.39;43.67;96820.91;4185755;28;5775;-63
2023/06/07 06:23:51;;;;;;;;;;;;;;;24.35;43.45;96819.88;4186005;28;5719;-63
2023/06/07 06:25:56;;;;;;;;;;;;;;;24.37;43.29;96825.00;4185761;28;5732;-64
2023/06/07 06:27:58;;;;;;;;;;;;;;;24.41;43.45;96823.34;4185291;28;5832;-64
2023/06/07 06:30:02;;;;;;;;;;;;;;;24.43;43.03;96831.16;4185901;28;5728;-64
2023/06/07 06:32:06;;;;;;;;;;;;;;;24.45;43.37;96827.09;4185746;28;5709;-64
2023/06/07 06:34:09;;;;;;;;;;;;;;;24.47;42.92;96830.34;4185284;28;5822;-63
2023/06/07 06:36:12;;;;;;;;;;;;;;;24.51;42.68;96822.47;4185796;28;5715;-64
2023/06/07 06:38:17;;;;;;;;;;;;;;;24.54;42.82;96827.31;4185566;28;5723;-63
2023/06/07 06:40:21;;;;;;;;;;;;;;;24.55;42.72;96826.22;4185467;28;5730;-64
2023/06/07 06:42:24;;;;;;;;;;;;;;;24.57;42.80;96830.25;4185539;28;5852;-63
2023/06/07 06:44:26;;;;;;;;;;;;;;;24.59;42.54;96824.56;4185369;28;6978;-63
2023/06/07 06:46:29;;;;;;;;;;;;;;;24.60;42.92;96829.69;4186208;28;5823;-64
2023/06/07 06:48:33;;;;;;;;;;;;;;;24.58;42.80;96820.25;4184930;28;5719;-64
2023/06/07 06:50:35;;;;;;;;;;;;;;;24.58;42.72;96823.78;4185467;28;5843;-64
2023/06/07 06:52:39;;;;;;;;;;;;;;;24.57;42.85;96826.72;4185383;28;5719;-64
2023/06/07 06:54:44;;;;;;;;;;;;;;;24.55;42.85;96823.50;4184964;28;5852;-64
2023/06/07 06:56:47;;;;;;;;;;;;;;;24.58;42.51;96823.78;4184994;28;5843;-64
2023/06/07 06:58:50;;;;;;;;;;;;;;;24.63;42.46;96825.63;4184043;28;5946;-64
2023/06/07 07:00:53;;;;;;;;;;;;;;;24.61;42.18;96823.19;4182146;28;5783;-64
2023/06/07 07:02:56;;;;;;;;;;;;;;;24.60;42.44;96820.78;4183950;28;5711;-64
2023/06/07 07:04:59;;;;;;;;;;;;;;;24.57;42.03;96829.44;4180303;28;7732;-64
2023/06/07 07:07:02;;;;;;;;;;;;;;;24.54;42.07;96832.72;4168498;28;5740;-62
2023/06/07 07:09:06;;;;;;;;;;;;;;;24.52;41.89;96832.19;4168949;28;5724;-64
2023/06/07 07:11:11;;;;;;;;;;;;;;;24.46;42.22;96830.59;4167733;28;6001;-64
2023/06/07 07:13:14;;;;;;;;;;;;;;;24.42;41.99;96824.94;4168836;28;5745;-64
2023/06/07 07:15:17;;;;;;;;;;;;;;;24.41;41.62;96833.34;4177514;28;5814;-64
2023/06/07 07:17:20;;;;;;;;;;;;;;;24.39;41.99;96834.44;4178526;28;5747;-64
2023/06/07 07:19:23;;;;;;;;;;;;;;;24.38;42.04;96829.31;4169732;28;5740;-62
2023/06/07 07:21:27;;;;;;;;;;;;;;;24.37;41.80;96833.91;4185144;28;5938;-64
2023/06/07 07:23:30;;;;;;;;;;;;;;;24.36;42.16;96837.69;4185144;28;5703;-64
2023/06/07 07:25:33;;;;;;;;;;;;;;;24.36;42.03;96840.41;4185108;28;5739;-64
2023/06/07 07:27:38;;;;;;;;;;;;;;;24.36;41.59;96835.00;4184198;28;5703;-64
2023/06/07 07:29:41;;;;;;;;;;;;;;;24.37;41.66;96843.91;4183010;28;6117;-69
2023/06/07 07:31:45;;;;;;;;;;;;;;;24.35;41.59;96840.66;4182713;28;5743;-69
2023/06/07 07:33:48;;;;;;;;;;;;;;;24.31;41.91;96832.31;4183413;28;5715;-69
2023/06/07 07:35:52;;;;;;;;;;;;;;;24.30;41.75;96830.69;4185101;28;5739;-69
2023/06/07 07:37:55;;;;;;;;;;;;;;;24.27;41.54;96833.94;4184990;28;5786;-70
2023/06/07 07:39:58;;;;;;;;;;;;;;;24.25;41.87;96838.81;4184833;28;5862;-67
2023/06/07 07:42:03;;;;;;;;;;;;;;;24.22;41.64;96836.66;4168615;28;5849;-68
2023/06/07 07:44:07;;;;;;;;;;;;;;;24.20;41.77;96832.63;4184385;28;5739;-69
2023/06/07 07:46:10;;;;;;;;;;;;;;;24.19;41.62;96837.22;4184007;28;5707;-68
2023/06/07 07:48:13;;;;;;;;;;;;;;;24.20;41.52;96835.31;4182463;28;5870;-68
2023/06/07 07:50:17;;;;;;;;;;;;;;;24.17;41.82;96833.19;4183474;28;7004;-68
2023/06/07 07:52:20;;;;;;;;;;;;;;;24.16;41.72;96839.69;4184441;28;5780;-68
2023/06/07 07:54:25;;;;;;;;;;;;;;;24.15;41.74;96827.28;4184516;28;5751;-68
2023/06/07 07:56:28;;;;;;;;;;;;;;;24.14;41.46;96837.25;4184426;28;6396;-68
2023/06/07 07:58:31;;;;;;;;;;;;;;;24.13;42.13;96832.94;4184298;28;5818;-68
2023/06/07 08:00:35;;;;;;;;;;;;;;;24.10;41.61;96836.19;4184691;28;5812;-67
2023/06/07 08:02:39;;;;;;;;;;;;;;;24.00;42.00;96831.66;4184675;28;5794;-67
2023/06/07 08:04:43;;;;;;;;;;;;;;;24.01;41.69;96835.16;4184184;28;5828;-67
2023/06/07 08:06:48;;;;;;;;;;;;;;;24.04;41.70;96834.63;4184385;28;5790;-68
2023/06/07 08:08:51;;;;;;;;;;;;;;;24.04;41.87;96842.72;4184292;28;5752;-69
2023/06/07 08:10:55;;;;;;;;;;;;;;;24.03;41.80;96838.41;4184420;28;5719;-68
2023/06/07 08:12:58;;;;;;;;;;;;;;;24.02;41.63;96834.09;4184549;28;5712;-68
2023/06/07 08:15:01;;;;;;;;;;;;;;;24.01;41.71;96837.84;4184544;28;5724;-68
2023/06/07 08:17:05;;;;;;;;;;;;;;;24.01;41.41;96835.16;4183986;28;6165;-68
2023/06/07 08:19:09;;;;;;;;;;;;;;;24.02;41.56;96839.50;4183796;28;5739;-68
2023/06/07 08:21:12;;;;;;;;;;;;;;;24.00;41.64;96839.75;4184172;28;5795;-68
2023/06/07 08:23:15;;;;;;;;;;;;;;;24.01;41.54;96843.25;4184138;28;5719;-68
2023/06/07 08:25:19;;;;;;;;;;;;;;;24.03;41.58;96847.31;4184325;28;5699;-68
2023/06/07 08:27:22;;;;;;;;;;;;;;;24.04;41.04;96842.72;4184533;28;5711;-68
2023/06/07 08:29:25;;;;;;;;;;;;;;;24.03;41.10;96850.00;4184244;28;5802;-68
2023/06/07 08:31:28;;;;;;;;;;;;;;;24.04;41.18;96845.41;4184475;28;5734;-68
2023/06/07 08:33:33;;;;;;;;;;;;;;;24.06;41.48;96846.75;4183897;28;5806;-68
2023/06/07 08:35:36;;;;;;;;;;;;;;;24.06;41.45;96848.63;4183929;28;5810;-68
2023/06/07 08:37:40;;;;;;;;;;;;;;;24.04;41.42;96842.72;4184065;28;5723;-68
2023/06/07 08:39:42;;;;;;;;;;;;;;;24.05;41.40;96841.63;4184137;28;5703;-68
2023/06/07 08:41:48;;;;;;;;;;;;;;;24.07;41.26;96851.06;4183949;28;5731;-68
2023/06/07 08:43:52;;;;;;;;;;;;;;;24.10;40.98;96853.19;4183986;28;7698;-68
2023/06/07 08:45:56;;;;;;;;;;;;;;;24.13;41.45;96848.34;4184070;28;5743;-68
2023/06/07 08:48:06;;;;;;;;;;;;;;;24.14;41.49;96847.25;4183995;28;5748;-68
2023/06/07 08:50:13;;;;;;;;;;;;;;;24.13;41.30;96840.25;4183778;28;5823;-68
2023/06/07 08:52:17;;;;;;;;;;;;;;;24.13;41.31;96841.06;4183710;28;5735;-68
2023/06/07 08:54:28;;;;;;;;;;;;;;;24.11;41.21;96832.41;4183943;28;5779;-68
2023/06/07 08:56:32;;;;;;;;;;;;;;;24.13;41.13;96843.75;4184082;28;5786;-68
2023/06/07 08:58:37;;;;;;;;;;;;;;;24.11;41.47;96835.09;4183672;28;5699;-68
2023/06/07 09:00:41;;;;;;;;;;;;;;;24.11;41.05;96835.09;4183841;28;5976;-67
2023/06/07 09:02:43;;;;;;;;;;;;;;;24.13;41.36;96832.94;4183830;28;5711;-68
2023/06/07 09:04:47;;;;;;;;;;;;;;;24.17;41.32;96834.00;4183701;28;5823;-68
2023/06/07 09:06:51;;;;;;;;;;;;;;;24.21;40.94;96835.03;4183588;28;5783;-68
2023/06/07 09:08:54;;;;;;;;;;;;;;;24.20;41.00;96833.44;4183829;28;5704;-68
2023/06/07 09:10:58;;;;;;;;;;;;;;;24.17;40.98;96828.59;4183403;28;5822;-68
2023/06/07 09:13:05;;;;;;;;;;;;;;;24.17;41.31;96828.59;4183721;28;5719;-68
2023/06/07 09:15:10;;;;;;;;;;;;;;;24.16;41.27;96821.59;4167344;28;5768;-68
2023/06/07 09:17:13;;;;;;;;;;;;;;;24.18;41.26;96827.50;4175016;28;5889;-68
2023/06/07 09:19:30;;;;;;;;;;;;;;;24.17;40.84;96828.59;4183333;28;5719;-68
2023/06/07 09:21:35;;;;;;;;;;;;;;;24.18;41.38;96824.81;4183957;28;5711;-68
2023/06/07 09:23:41;;;;;;;;;;;;;;;24.21;40.87;96829.66;4183544;28;5707;-68
2023/06/07 09:25:45;;;;;;;;;;;;;;;24.23;41.03;96819.34;4183462;28;5826;-68
2023/06/07 09:27:50;;;;;;;;;;;;;;;24.23;41.02;96824.75;4183492;28;5814;-68
2023/06/07 09:30:03;;;;;;;;;;;;;;;24.21;41.01;96815.34;4183718;28;5867;-67
2023/06/07 09:32:18;;;;;;;;;;;;;;;24.21;41.04;96816.13;4183781;28;5743;-67
2023/06/07 09:34:22;;;;;;;;;;;;;;;24.23;41.06;96818.56;4184154;28;5810;-67
2023/06/07 09:36:28;;;;;;;;;;;;;;;24.25;41.23;96824.50;4186728;28;5826;-68
2023/06/07 09:38:33;;;;;;;;;;;;;;;24.25;41.09;96821.81;4186933;28;5723;-68
2023/06/07 09:40:51;;;;;;;;;;;;;;;24.20;41.23;96825.31;4201982;28;5775;-68
2023/06/07 09:42:58;;;;;;;;;;;;;;;24.22;41.29;96825.84;4186392;28;5715;-68
2023/06/07 09:45:10;;;;;;;;;;;;;;;24.25;41.35;96822.63;4185318;28;5844;-67
2023/06/07 09:47:21;;;;;;;;;;;;;;;24.26;41.05;96824.22;4169632;28;5840;-67
2023/06/07 09:49:31;;;;;;;;;;;;;;;24.26;41.22;96821.53;4169551;28;5748;-67
2023/06/07 09:51:40;;;;;;;;;;;;;;;24.27;41.26;96817.72;4181805;28;5699;-68
2023/06/07 09:53:54;;;;;;;;;;;;;;;24.23;41.24;96811.25;4186080;28;5813;-68
2023/06/07 09:55:59;;;;;;;;;;;;;;;24.21;41.15;96818.84;4186402;28;5699;-68
2023/06/07 09:58:18;;;;;;;;;;;;;;;24.21;41.43;96815.34;4185966;28;5723;-67
2023/06/07 10:00:21;;;;;;;;;;;;;;;24.23;41.56;96805.06;4169736;28;5744;-69
2023/06/07 10:02:26;;;;;;;;;;;;;;;24.25;41.22;96797.50;4180316;28;5802;-68
2023/06/07 10:04:31;;;;;;;;;;;;;;;24.28;40.99;96797.72;4186071;28;5749;-68
2023/06/07 10:06:38;;;;;;;;;;;;;;;24.25;41.08;96792.91;4185973;28;6447;-68
2023/06/07 10:08:44;;;;;;;;;;;;;;;24.22;41.53;96785.34;4186254;28;5711;-68
2023/06/07 10:10:51;;;;;;;;;;;;;;;24.24;41.43;96785.09;4186273;28;5790;-68
2023/06/07 10:12:58;;;;;;;;;;;;;;;24.24;41.58;96783.19;4186068;28;5711;-68
2023/06/07 10:15:02;;;;;;;;;;;;;;;24.25;41.38;96776.69;4185999;28;5823;-68
2023/06/07 10:17:13;;;;;;;;;;;;;;;24.32;41.09;96782.59;4186006;28;5739;-68
2023/06/07 10:19:19;;;;;;;;;;;;;;;24.29;41.60;96771.53;4185981;28;5843;-68
2023/06/07 10:21:26;;;;;;;;;;;;;;;24.31;41.74;96774.78;4186121;28;5731;-68
2023/06/07 10:23:48;;;;;;;;;;;;;;;24.31;41.26;96769.38;4186074;28;5723;-68
2023/06/07 10:25:57;;;;;;;;;;;;;;;24.34;41.24;96771.50;4185744;28;5731;-68
2023/06/07 10:28:10;;;;;;;;;;;;;;;24.34;41.47;96775.00;4185856;28;5739;-68
2023/06/07 10:30:16;;;;;;;;;;;;;;;24.36;41.51;96767.47;4185746;28;5844;-69
2023/06/07 10:32:26;;;;;;;;;;;;;;;24.38;41.20;96759.06;4185966;28;5711;-69
2023/06/07 10:34:31;;;;;;;;;;;;;;;24.42;40.99;96764.72;4185738;28;5707;-69
2023/06/07 10:36:36;;;;;;;;;;;;;;;24.43;41.23;96759.00;4185908;28;5854;-69
2023/06/07 10:38:40;;;;;;;;;;;;;;;24.45;40.96;96766.84;4185762;28;5719;-69
2023/06/07 10:40:43;;;;;;;;;;;;;;;24.47;41.22;96765.50;4185868;28;5727;-69
2023/06/07 10:42:47;;;;;;;;;;;;;;;24.51;41.13;96763.81;4185683;28;5739;-69
2023/06/07 10:44:52;;;;;;;;;;;;;;;24.50;40.75;96767.63;4185553;28;5740;-68
2023/06/07 10:47:33;;;;;;;;;;;;;;;24.53;40.60;96764.34;4185574;28;5730;-68
2023/06/07 10:49:37;;;;;;;;;;;;;;;24.55;40.90;96759.44;4175165;28;5715;-68
2023/06/07 10:52:02;;;;;;;;;;;;;;;24.58;40.59;96760.81;4185460;28;5723;-68
2023/06/07 10:54:06;;;;;;;;;;;;;;;24.61;40.74;96757.53;4185499;28;5927;-68
2023/06/07 10:56:27;;;;;;;;;;;;;;;24.61;40.72;96755.63;4185517;28;5790;-68
2023/06/07 10:58:30;;;;;;;;;;;;;;;24.64;40.28;96754.25;4185118;28;5715;-68
2023/06/07 11:00:38;;;;;;;;;;;;;;;24.63;40.54;96750.75;4185571;28;5711;-68
2023/06/07 11:02:41;;;;;;;;;;;;;;;24.64;40.28;96756.94;4185369;28;5699;-68
2023/06/07 11:04:55;;;;;;;;;;;;;;;24.65;40.45;96758.56;4184985;28;5759;-68
2023/06/07 11:07:18;;;;;;;;;;;;;;;24.67;40.22;96750.97;4185430;28;5735;-68
2023/06/07 11:09:25;;;;;;;;;;;;;;;24.67;39.97;96742.88;4185131;28;5826;-68
2023/06/07 11:11:49;;;;;;;;;;;;;;;24.67;39.82;96742.88;4185163;28;5735;-68
2023/06/07 11:14:11;;;;;;;;;;;;;;;24.69;39.58;96738.00;4185382;28;5716;-68
2023/06/07 11:16:36;;;;;;;;;;;;;;;24.70;40.09;96734.22;4184882;28;5778;-68
2023/06/07 11:18:54;;;;;;;;;;;;;;;24.74;39.89;96737.13;4184960;28;5786;-68
2023/06/07 11:20:57;;;;;;;;;;;;;;;24.73;39.74;96730.94;4183964;28;5719;-68
2023/06/07 11:23:19;;;;;;;;;;;;;;;24.74;40.08;96724.44;4185062;28;5786;-68
2023/06/07 11:25:22;;;;;;;;;;;;;;;24.78;39.76;96720.06;4184902;28;5715;-68
2023/06/07 11:27:25;;;;;;;;;;;;;;;24.83;40.13;96727.31;4183650;28;5834;-68
2023/06/07 11:29:31;;;;;;;;;;;;;;;24.85;39.94;96719.72;4184893;28;5719;-68
2023/06/07 11:31:33;;;;;;;;;;;;;;;24.89;39.65;96715.34;4184881;28;6402;-68
2023/06/07 11:33:38;;;;;;;;;;;;;;;24.92;40.01;96707.50;4184799;28;6506;-68
2023/06/07 11:35:42;;;;;;;;;;;;;;;24.94;39.89;96707.19;4185040;28;5711;-68
2023/06/07 11:37:45;;;;;;;;;;;;;;;24.97;39.98;96696.59;4184921;28;5822;-68
2023/06/07 11:39:48;;;;;;;;;;;;;;;24.97;40.06;96696.59;4184978;28;5798;-69
2023/06/07 11:41:51;;;;;;;;;;;;;;;25.00;39.49;96697.13;4181071;28;5806;-69
2023/06/07 11:43:54;;;;;;;;;;;;;;;25.03;39.95;96685.75;4175208;28;5915;-69
2023/06/07 11:45:58;;;;;;;;;;;;;;;25.04;39.75;96684.69;4168075;28;5732;-68
2023/06/07 11:48:02;;;;;;;;;;;;;;;25.06;39.53;96687.91;4177952;28;5740;-68
2023/06/07 11:50:07;;;;;;;;;;;;;;;25.08;39.72;96696.53;4183057;28;5719;-69
2023/06/07 11:52:10;;;;;;;;;;;;;;;25.10;39.61;96697.03;4184417;28;5710;-69
2023/06/07 11:54:13;;;;;;;;;;;;;;;25.12;39.69;96697.53;4187288;28;5719;-68
2023/06/07 11:56:16;;;;;;;;;;;;;;;25.14;39.27;96696.19;4173163;28;5894;-68
2023/06/07 11:58:19;;;;;;;;;;;;;;;25.16;39.23;96694.00;4167056;28;5728;-68
2023/06/07 12:00:25;;;;;;;;;;;;;;;25.17;39.57;96700.22;4168098;28;6482;-68
2023/06/07 12:02:29;;;;;;;;;;;;;;;25.15;39.56;96691.59;4167968;28;5740;-68
2023/06/07 12:04:33;;;;;;;;;;;;;;;25.14;39.08;96695.34;4179489;28;5735;-68
2023/06/07 12:06:38;;;;;;;;;;;;;;;25.11;39.33;96685.13;4184369;28;5850;-68
2023/06/07 12:08:41;;;;;;;;;;;;;;;25.12;39.24;96686.72;4184322;28;5715;-68
2023/06/07 12:10:52;;;;;;;;;;;;;;;25.12;39.10;96684.81;4184571;28;5711;-68
2023/06/07 12:13:09;;;;;;;;;;;;;;;25.12;39.21;96678.63;4184384;28;5778;-68
2023/06/07 12:15:12;;;;;;;;;;;;;;;25.14;39.52;96681.84;4184334;28;5723;-68
2023/06/07 12:17:15;;;;;;;;;;;;;;;25.14;39.61;96676.41;4184107;28;5695;-68
2023/06/07 12:19:19;;;;;;;;;;;;;;;25.19;39.23;96681.78;4183730;28;5699;-67
2023/06/07 12:21:24;;;;;;;;;;;;;;;25.21;39.17;96674.19;4184497;28;5710;-68
2023/06/07 12:23:28;;;;;;;;;;;;;;;25.24;39.27;96676.31;4184234;28;5699;-68
2023/06/07 12:25:34;;;;;;;;;;;;;;;25.24;39.12;96674.41;4182897;28;5658;-68
2023/06/07 12:27:38;;;;;;;;;;;;;;;25.27;39.10;96673.03;4184330;28;6405;-68
2023/06/07 12:29:42;;;;;;;;;;;;;;;25.30;38.89;96677.84;4184105;28;5762;-67
2023/06/07 12:31:46;;;;;;;;;;;;;;;25.33;39.17;96671.84;4184138;28;5786;-68
2023/06/07 12:33:56;;;;;;;;;;;;;;;25.34;38.69;96667.25;4183634;28;5803;-68
2023/06/07 12:35:59;;;;;;;;;;;;;;;25.35;38.87;96655.34;4184098;28;5711;-68
2023/06/07 12:38:02;;;;;;;;;;;;;;;25.33;38.73;96663.75;4183892;28;5715;-68
2023/06/07 12:40:08;;;;;;;;;;;;;;;25.33;38.79;96655.63;4184059;28;5716;-70
2023/06/07 12:42:12;;;;;;;;;;;;;;;25.33;38.87;96652.91;4184023;28;5750;-69
2023/06/07 12:44:15;;;;;;;;;;;;;;;25.35;38.69;96656.13;4184303;28;6417;-69
2023/06/07 12:46:18;;;;;;;;;;;;;;;25.40;38.90;96649.88;4183947;28;6397;-68
2023/06/07 12:48:21;;;;;;;;;;;;;;;25.45;38.88;96636.25;4183251;28;5781;-68
2023/06/07 12:50:24;;;;;;;;;;;;;;;25.48;38.54;96635.66;4183728;28;5783;-68
2023/06/07 12:52:27;;;;;;;;;;;;;;;25.51;38.62;96640.50;4183810;28;6120;-68
2023/06/07 12:54:30;;;;;;;;;;;;;;;25.54;38.61;96645.34;4183737;28;5783;-68
2023/06/07 12:56:35;;;;;;;;;;;;;;;25.55;38.88;96641.53;4183936;28;5740;-68
2023/06/07 12:58:38;;;;;;;;;;;;;;;25.57;38.47;96642.03;4183646;28;6544;-68
2023/06/07 13:00:41;;;;;;;;;;;;;;;25.59;38.53;96639.03;4183812;28;5834;-68
2023/06/07 13:02:44;;;;;;;;;;;;;;;25.59;38.88;96633.63;4183666;28;5727;-68
2023/06/07 13:04:47;;;;;;;;;;;;;;;25.57;38.44;96638.53;4183308;28;5708;-68
2023/06/07 13:06:51;;;;;;;;;;;;;;;25.55;38.54;96628.78;4170789;28;5863;-69
2023/06/07 13:09:07;;;;;;;;;;;;;;;25.55;38.48;96626.09;4172180;28;5729;-68
2023/06/07 13:11:11;;;;;;;;;;;;;;;25.55;39.01;96626.09;4175347;28;5831;-67
2023/06/07 13:13:15;;;;;;;;;;;;;;;25.56;38.83;96626.91;4188705;28;5698;-68
2023/06/07 13:15:18;;;;;;;;;;;;;;;25.56;38.97;96618.78;4185522;28;5670;-68
2023/06/07 13:17:22;;;;;;;;;;;;;;;25.57;38.79;96611.47;4190578;28;5882;-69
2023/06/07 13:19:25;;;;;;;;;;;;;;;25.59;38.89;96622.78;4185688;28;5850;-68
2023/06/07 13:21:28;;;;;;;;;;;;;;;25.59;38.61;96617.38;4185571;28;5719;-68
2023/06/07 13:23:31;;;;;;;;;;;;;;;25.61;38.55;96612.50;4182776;28;7718;-68
2023/06/07 13:25:34;;;;;;;;;;;;;;;25.63;38.57;96615.72;4185589;28;5719;-68
2023/06/07 13:27:37;;;;;;;;;;;;;;;25.64;38.83;96614.59;4185576;28;5700;-68
2023/06/07 13:29:42;;;;;;;;;;;;;;;25.64;38.85;96609.19;4189216;28;6486;-68
2023/06/07 13:31:45;;;;;;;;;;;;;;;25.63;38.83;96604.88;4196677;28;5720;-68
2023/06/07 13:33:48;;;;;;;;;;;;;;;25.66;38.69;96609.69;4183595;28;5918;-67
2023/06/07 13:35:51;;;;;;;;;;;;;;;25.68;38.98;96607.50;4186882;28;5723;-68
2023/06/07 13:37:55;;;;;;;;;;;;;;;25.68;38.90;96602.88;4186789;28;6527;-68
2023/06/07 13:39:58;;;;;;;;;;;;;;;25.69;38.74;96595.56;4185228;28;5721;-69
2023/06/07 13:42:01;;;;;;;;;;;;;;;25.69;39.19;96600.97;4185357;28;6419;-69
2023/06/07 13:44:04;;;;;;;;;;;;;;;25.70;38.82;96600.72;4185096;28;5699;-69
2023/06/07 13:46:21;;;;;;;;;;;;;;;25.70;39.24;96597.22;4179492;28;5703;-69
2023/06/07 13:48:24;;;;;;;;;;;;;;;25.71;39.32;96590.69;4185111;28;6618;-69
2023/06/07 13:50:28;;;;;;;;;;;;;;;25.71;39.24;96585.28;4184947;28;6374;-69
2023/06/07 13:52:32;;;;;;;;;;;;;;;25.75;39.48;96591.72;4185244;28;5726;-69
2023/06/07 13:54:35;;;;;;;;;;;;;;;25.79;39.28;96587.31;4185100;28;5723;-69
2023/06/07 13:56:38;;;;;;;;;;;;;;;25.88;38.94;96588.25;4185351;28;6692;-68
2023/06/07 13:58:41;;;;;;;;;;;;;;;25.90;39.17;96588.75;4184804;28;5826;-68
2023/06/07 14:00:44;;;;;;;;;;;;;;;25.91;38.94;96594.97;4185156;28;6595;-68
2023/06/07 14:02:49;;;;;;;;;;;;;;;25.88;39.27;96585.56;4184919;28;5691;-68
2023/06/07 14:04:52;;;;;;;;;;;;;;;25.87;39.52;96586.66;4192126;28;5802;-68
2023/06/07 14:06:55;;;;;;;;;;;;;;;25.87;39.41;96583.94;4183611;28;5750;-68
2023/06/07 14:08:58;;;;;;;;;;;;;;;25.86;39.42;96581.53;4185074;28;5707;-68
2023/06/07 14:11:02;;;;;;;;;;;;;;;25.86;39.86;96582.34;4185067;28;5814;-68
2023/06/07 14:13:05;;;;;;;;;;;;;;;25.89;39.76;96580.94;4184458;28;5844;-68
2023/06/07 14:15:09;;;;;;;;;;;;;;;25.93;39.98;96585.47;4184874;28;5711;-69
2023/06/07 14:17:12;;;;;;;;;;;;;;;25.96;40.02;96579.47;4184619;28;5715;-68
2023/06/07 14:19:16;;;;;;;;;;;;;;;25.97;39.79;96581.06;4184809;28;5727;-68
2023/06/07 14:21:19;;;;;;;;;;;;;;;26.00;40.22;96583.19;4192087;28;5902;-68
2023/06/07 14:23:22;;;;;;;;;;;;;;;26.00;40.20;96576.97;4184430;28;6701;-68
2023/06/07 14:25:26;;;;;;;;;;;;;;;25.99;40.43;96578.06;4184525;28;5882;-68
2023/06/07 14:27:28;;;;;;;;;;;;;;;25.98;41.02;96574.56;4182206;28;5707;-68
2023/06/07 14:29:32;;;;;;;;;;;;;;;25.98;41.31;96568.34;4178932;28;5844;-67
2023/06/07 14:31:34;;;;;;;;;;;;;;;26.00;41.30;96576.97;4177422;28;5810;-68
2023/06/07 14:33:38;;;;;;;;;;;;;;;25.98;41.56;96569.13;4181766;28;6514;-68
2023/06/07 14:35:42;;;;;;;;;;;;;;;25.98;41.89;96568.34;4179818;28;5740;-68
2023/06/07 14:37:45;;;;;;;;;;;;;;;25.97;41.86;96570.25;4184833;28;5852;-68
2023/06/07 14:39:48;;;;;;;;;;;;;;;25.94;41.68;96570.84;4186252;28;5802;-68
2023/06/07 14:41:51;;;;;;;;;;;;;;;25.92;41.94;96564.91;4184112;28;5930;-69
2023/06/07 14:43:54;;;;;;;;;;;;;;;25.89;41.52;96565.50;4183608;28;6649;-69
2023/06/07 14:45:57;;;;;;;;;;;;;;;25.89;42.00;96565.50;4194292;28;5942;-69
2023/06/07 14:48:00;;;;;;;;;;;;;;;25.88;41.59;96566.59;4176535;28;5825;-69
2023/06/07 14:50:08;;;;;;;;;;;;;;;25.88;41.74;96569.31;4181392;28;6146;-69
2023/06/07 14:52:13;;;;;;;;;;;;;;;25.88;41.33;96563.88;4178777;28;5825;-69
2023/06/07 14:54:16;;;;;;;;;;;;;;;25.90;41.40;96569.81;4174647;28;5851;-69
2023/06/07 14:56:19;;;;;;;;;;;;;;;25.94;41.06;96565.44;4181491;28;5799;-69
2023/06/07 14:58:22;;;;;;;;;;;;;;;25.94;41.26;96562.72;4179630;28;5901;-69
2023/06/07 15:00:27;;;;;;;;;;;;;;;25.93;40.84;96561.09;4177954;28;5722;-69
2023/06/07 15:02:32;;;;;;;;;;;;;;;25.92;41.06;96553.25;4184131;28;5864;-69
2023/06/07 15:04:36;;;;;;;;;;;;;;;25.90;41.30;96561.69;4191801;28;5722;-69
2023/06/07 15:06:39;;;;;;;;;;;;;;;25.91;41.14;96562.50;4177295;28;5854;-68
2023/06/07 15:08:46;;;;;;;;;;;;;;;25.89;41.16;96562.78;4178948;28;5818;-69
2023/06/07 15:10:49;;;;;;;;;;;;;;;25.91;41.17;96565.19;4185507;28;5798;-69
2023/06/07 15:12:52;;;;;;;;;;;;;;;25.90;41.05;96556.28;4180557;28;5892;-69
2023/06/07 15:14:55;;;;;;;;;;;;;;;25.90;40.96;96564.38;4178185;28;5827;-69
2023/06/07 15:17:00;;;;;;;;;;;;;;;25.91;41.15;96557.06;4175260;28;5838;-69
2023/06/07 15:19:03;;;;;;;;;;;;;;;25.92;40.86;96559.47;4182693;28;5127;-69
2023/06/07 15:21:06;;;;;;;;;;;;;;;25.95;41.01;96553.50;4175074;28;5723;-69
2023/06/07 15:23:09;;;;;;;;;;;;;;;25.95;40.77;96558.91;4172896;28;5761;-69
2023/06/07 15:25:14;;;;;;;;;;;;;;;25.92;40.76;96550.56;4173952;28;5842;-69
2023/06/07 15:27:17;;;;;;;;;;;;;;;25.93;40.66;96550.25;4173233;28;5883;-69
2023/06/07 15:29:20;;;;;;;;;;;;;;;25.93;40.55;96544.84;4174263;28;5811;-69
2023/06/07 15:31:22;;;;;;;;;;;;;;;25.92;40.70;96545.94;4177260;28;5797;-69
2023/06/07 15:33:26;;;;;;;;;;;;;;;25.92;40.91;96542.44;4178314;28;5906;-69
2023/06/07 15:35:28;;;;;;;;;;;;;;;25.94;40.58;96546.47;4176286;28;5817;-69
2023/06/07 15:37:31;;;;;;;;;;;;;;;25.94;40.82;96541.06;4204828;28;5731;-69
2023/06/07 15:39:34;;;;;;;;;;;;;;;25.94;40.68;96553.78;4179186;28;5092;-69
2023/06/07 15:41:39;;;;;;;;;;;;;;;25.96;40.38;96538.84;4183148;28;5806;-69
2023/06/07 15:43:43;;;;;;;;;;;;;;;26.00;40.39;96539.84;4174278;28;5930;-69
2023/06/07 15:45:47;;;;;;;;;;;;;;;26.01;40.31;96535.22;4181352;28;5843;-69
2023/06/07 15:47:57;;;;;;;;;;;;;;;26.01;39.86;96530.63;4185402;28;5810;-69
2023/06/07 15:50:00;;;;;;;;;;;;;;;26.04;39.99;96535.44;4175319;28;5794;-69
2023/06/07 15:52:04;;;;;;;;;;;;;;;26.03;40.03;96533.03;4181327;28;6349;-69
2023/06/07 15:54:07;;;;;;;;;;;;;;;26.04;40.27;96530.00;4178716;28;5814;-69
2023/06/07 15:56:09;;;;;;;;;;;;;;;26.04;40.08;96526.50;4181588;28;5786;-67
2023/06/07 15:58:14;;;;;;;;;;;;;;;26.02;39.90;96532.22;4176303;28;5926;-67